Terminal Aerodrome Forecast
Issued by NWS Blacksburg, VA

Current Version | Previous Version | Text Only | Print | Product List | Glossary Off
Versions: 1 2 3 4 5 6 7 8 9 10 11 12 13 14 15 16 17 18 19 20 21 22 23 24 25 26 27 28 29 30 31 32 33 34 35 36 37 38 39 40 41 42 43 44 45 46 47

000
FTUS41 KRNK 010043 AAA
TAFBLF
TAF AMD
KBLF 010043Z 0101/0124 28010KT 5SM -TSRA SCT025 OVC040CB
      TEMPO 0101/0103 VRB20G30KT 2SM TSRA OVC025CB
     FM010300 25004KT 5SM -SHRA BKN035
     FM010900 27008KT P6SM OVC012
     FM011200 25007KT P6SM SCT013 OVC050
     FM011800 27009KT P6SM BKN045=

USA.gov is the U.S. government's official web portal to all federal, state and local government web resources and services.